sensor_id;sensor_type;location;lat;lon;timestamp;temperature;humidity
21805;DHT22;11064;47.102;15.452;2023-09-30T00:00:01;12.20;99.90
21805;DHT22;11064;47.102;15.452;2023-09-30T00:02:28;12.20;99.90
21805;DHT22;11064;47.102;15.452;2023-09-30T00:04:54;12.20;99.90
21805;DHT22;11064;47.102;15.452;2023-09-30T00:07:20;12.30;99.90
21805;DHT22;11064;47.102;15.452;2023-09-30T00:09:45;12.30;99.90
21805;DHT22;11064;47.102;15.452;2023-09-30T00:12:11;12.30;99.90
21805;DHT22;11064;47.102;15.452;2023-09-30T00:14:37;12.30;99.90
21805;DHT22;11064;47.102;15.452;2023-09-30T00:17:03;12.20;99.90
21805;DHT22;11064;47.102;15.452;2023-09-30T00:19:29;12.30;99.90
21805;DHT22;11064;47.102;15.452;2023-09-30T00:21:58;12.20;99.90
21805;DHT22;11064;47.102;15.452;2023-09-30T00:24:26;12.20;99.90
21805;DHT22;11064;47.102;15.452;2023-09-30T00:26:52;12.20;99.90
21805;DHT22;11064;47.102;15.452;2023-09-30T00:29:18;12.10;99.90
21805;DHT22;11064;47.102;15.452;2023-09-30T00:31:43;12.00;99.90
21805;DHT22;11064;47.102;15.452;2023-09-30T00:34:10;12.00;99.90
21805;DHT22;11064;47.102;15.452;2023-09-30T00:36:36;12.00;99.90
21805;DHT22;11064;47.102;15.452;2023-09-30T00:39:01;12.00;99.90
21805;DHT22;11064;47.102;15.452;2023-09-30T00:41:27;12.00;99.90
21805;DHT22;11064;47.102;15.452;2023-09-30T00:43:53;12.00;99.90
21805;DHT22;11064;47.102;15.452;2023-09-30T00:46:29;12.00;99.90
21805;DHT22;11064;47.102;15.452;2023-09-30T00:48:57;11.90;99.90
21805;DHT22;11064;47.102;15.452;2023-09-30T00:51:24;11.80;99.90
21805;DHT22;11064;47.102;15.452;2023-09-30T00:53:52;11.90;99.90
21805;DHT22;11064;47.102;15.452;2023-09-30T00:56:19;11.90;99.90
21805;DHT22;11064;47.102;15.452;2023-09-30T00:58:48;11.90;99.90
21805;DHT22;11064;47.102;15.452;2023-09-30T01:01:17;12.00;99.90
21805;DHT22;11064;47.102;15.452;2023-09-30T01:03:47;11.90;99.90
21805;DHT22;11064;47.102;15.452;2023-09-30T01:06:14;12.00;99.90
21805;DHT22;11064;47.102;15.452;2023-09-30T01:08:40;11.90;99.90
21805;DHT22;11064;47.102;15.452;2023-09-30T01:11:07;11.90;99.90
21805;DHT22;11064;47.102;15.452;2023-09-30T01:13:37;11.80;99.90
21805;DHT22;11064;47.102;15.452;2023-09-30T01:16:08;11.80;99.90
21805;DHT22;11064;47.102;15.452;2023-09-30T01:18:35;11.70;99.90
21805;DHT22;11064;47.102;15.452;2023-09-30T01:21:06;11.60;99.90
21805;DHT22;11064;47.102;15.452;2023-09-30T01:23:33;11.60;99.90
21805;DHT22;11064;47.102;15.452;2023-09-30T01:26:08;11.60;99.90
21805;DHT22;11064;47.102;15.452;2023-09-30T01:28:35;11.50;99.90
21805;DHT22;11064;47.102;15.452;2023-09-30T01:31:00;11.60;99.90
21805;DHT22;11064;47.102;15.452;2023-09-30T01:33:27;11.50;99.90
21805;DHT22;11064;47.102;15.452;2023-09-30T01:35:54;11.60;99.90
21805;DHT22;11064;47.102;15.452;2023-09-30T01:38:20;11.60;99.90
21805;DHT22;11064;47.102;15.452;2023-09-30T01:40:46;11.70;99.90
21805;DHT22;11064;47.102;15.452;2023-09-30T01:43:13;11.70;99.90
21805;DHT22;11064;47.102;15.452;2023-09-30T01:45:40;11.70;99.90
21805;DHT22;11064;47.102;15.452;2023-09-30T01:48:06;11.70;99.90
21805;DHT22;11064;47.102;15.452;2023-09-30T01:50:32;11.90;99.90
21805;DHT22;11064;47.102;15.452;2023-09-30T01:52:57;11.90;99.90
21805;DHT22;11064;47.102;15.452;2023-09-30T01:55:23;12.00;99.90
21805;DHT22;11064;47.102;15.452;2023-09-30T01:57:49;12.00;99.90
21805;DHT22;11064;47.102;15.452;2023-09-30T02:00:15;12.00;99.90
21805;DHT22;11064;47.102;15.452;2023-09-30T02:02:42;12.00;99.90
21805;DHT22;11064;47.102;15.452;2023-09-30T02:05:09;12.10;99.90
21805;DHT22;11064;47.102;15.452;2023-09-30T02:07:35;12.10;99.90
21805;DHT22;11064;47.102;15.452;2023-09-30T02:10:01;12.10;99.90
21805;DHT22;11064;47.102;15.452;2023-09-30T02:12:27;12.20;99.90
21805;DHT22;11064;47.102;15.452;2023-09-30T02:14:57;12.20;99.90
21805;DHT22;11064;47.102;15.452;2023-09-30T02:17:23;12.30;99.90
21805;DHT22;11064;47.102;15.452;2023-09-30T02:19:49;12.30;99.90
21805;DHT22;11064;47.102;15.452;2023-09-30T02:22:15;12.20;99.90
21805;DHT22;11064;47.102;15.452;2023-09-30T02:24:41;12.10;99.90
21805;DHT22;11064;47.102;15.452;2023-09-30T02:27:07;12.00;99.90
21805;DHT22;11064;47.102;15.452;2023-09-30T02:29:33;12.00;99.90
21805;DHT22;11064;47.102;15.452;2023-09-30T02:31:59;12.00;99.90
21805;DHT22;11064;47.102;15.452;2023-09-30T02:34:25;12.20;99.90
21805;DHT22;11064;47.102;15.452;2023-09-30T02:36:51;12.30;99.90
21805;DHT22;11064;47.102;15.452;2023-09-30T02:39:17;12.40;99.90
21805;DHT22;11064;47.102;15.452;2023-09-30T02:41:43;12.40;99.90
21805;DHT22;11064;47.102;15.452;2023-09-30T02:44:09;12.50;99.90
21805;DHT22;11064;47.102;15.452;2023-09-30T02:46:35;12.50;99.90
21805;DHT22;11064;47.102;15.452;2023-09-30T02:49:01;12.50;99.90
21805;DHT22;11064;47.102;15.452;2023-09-30T02:51:27;12.50;99.90
21805;DHT22;11064;47.102;15.452;2023-09-30T02:53:54;12.50;99.90
21805;DHT22;11064;47.102;15.452;2023-09-30T02:56:21;12.50;99.90
21805;DHT22;11064;47.102;15.452;2023-09-30T02:58:53;12.50;99.90
21805;DHT22;11064;47.102;15.452;2023-09-30T03:01:19;12.50;99.90
21805;DHT22;11064;47.102;15.452;2023-09-30T03:03:46;12.50;99.90
21805;DHT22;11064;47.102;15.452;2023-09-30T03:06:12;12.60;99.90
21805;DHT22;11064;47.102;15.452;2023-09-30T03:08:38;12.60;99.90
21805;DHT22;11064;47.102;15.452;2023-09-30T03:11:04;12.60;99.90
21805;DHT22;11064;47.102;15.452;2023-09-30T03:13:31;12.70;99.90
21805;DHT22;11064;47.102;15.452;2023-09-30T03:15:57;12.70;99.90
21805;DHT22;11064;47.102;15.452;2023-09-30T03:18:23;12.70;99.90
21805;DHT22;11064;47.102;15.452;2023-09-30T03:21:14;12.80;99.90
21805;DHT22;11064;47.102;15.452;2023-09-30T03:23:40;12.80;99.90
21805;DHT22;11064;47.102;15.452;2023-09-30T03:26:05;12.80;99.90
21805;DHT22;11064;47.102;15.452;2023-09-30T03:28:36;12.80;99.90
21805;DHT22;11064;47.102;15.452;2023-09-30T03:31:03;12.70;99.90
21805;DHT22;11064;47.102;15.452;2023-09-30T03:33:34;12.60;99.90
21805;DHT22;11064;47.102;15.452;2023-09-30T03:36:00;12.60;99.90
21805;DHT22;11064;47.102;15.452;2023-09-30T03:38:26;12.50;99.90
21805;DHT22;11064;47.102;15.452;2023-09-30T03:40:52;12.50;99.90
21805;DHT22;11064;47.102;15.452;2023-09-30T03:43:21;12.50;99.90
21805;DHT22;11064;47.102;15.452;2023-09-30T03:45:47;12.50;99.90
21805;DHT22;11064;47.102;15.452;2023-09-30T03:48:13;12.60;99.90
21805;DHT22;11064;47.102;15.452;2023-09-30T03:50:38;12.70;99.90
21805;DHT22;11064;47.102;15.452;2023-09-30T03:53:05;12.70;99.90
21805;DHT22;11064;47.102;15.452;2023-09-30T03:55:34;12.70;99.90
21805;DHT22;11064;47.102;15.452;2023-09-30T03:58:00;12.80;99.90
21805;DHT22;11064;47.102;15.452;2023-09-30T04:00:28;12.70;99.90
21805;DHT22;11064;47.102;15.452;2023-09-30T04:02:54;12.70;99.90
21805;DHT22;11064;47.102;15.452;2023-09-30T04:05:24;12.70;99.90
21805;DHT22;11064;47.102;15.452;2023-09-30T04:07:59;12.70;99.90
21805;DHT22;11064;47.102;15.452;2023-09-30T04:10:25;12.70;99.90
21805;DHT22;11064;47.102;15.452;2023-09-30T04:12:51;12.80;99.90
21805;DHT22;11064;47.102;15.452;2023-09-30T04:15:20;12.90;99.90
21805;DHT22;11064;47.102;15.452;2023-09-30T04:17:46;12.90;99.90
21805;DHT22;11064;47.102;15.452;2023-09-30T04:20:11;13.00;99.90
21805;DHT22;11064;47.102;15.452;2023-09-30T04:22:44;13.00;99.90
21805;DHT22;11064;47.102;15.452;2023-09-30T04:25:15;13.00;99.90
21805;DHT22;11064;47.102;15.452;2023-09-30T04:27:43;12.90;99.90
21805;DHT22;11064;47.102;15.452;2023-09-30T04:30:10;12.80;99.90
21805;DHT22;11064;47.102;15.452;2023-09-30T04:32:37;12.90;99.90
21805;DHT22;11064;47.102;15.452;2023-09-30T04:35:05;12.90;99.90
21805;DHT22;11064;47.102;15.452;2023-09-30T04:37:31;12.80;99.90
21805;DHT22;11064;47.102;15.452;2023-09-30T04:39:57;12.90;99.90
21805;DHT22;11064;47.102;15.452;2023-09-30T04:42:25;13.10;99.90
21805;DHT22;11064;47.102;15.452;2023-09-30T04:44:52;13.30;99.90
21805;DHT22;11064;47.102;15.452;2023-09-30T05:02:55;13.50;99.90
21805;DHT22;11064;47.102;15.452;2023-09-30T05:05:22;13.60;99.90
21805;DHT22;11064;47.102;15.452;2023-09-30T05:07:47;13.60;99.90
21805;DHT22;11064;47.102;15.452;2023-09-30T05:10:14;13.80;99.90
21805;DHT22;11064;47.102;15.452;2023-09-30T05:12:45;13.80;99.90
21805;DHT22;11064;47.102;15.452;2023-09-30T05:15:12;13.90;99.90
21805;DHT22;11064;47.102;15.452;2023-09-30T05:17:39;13.90;99.90
21805;DHT22;11064;47.102;15.452;2023-09-30T05:20:05;14.30;99.90
21805;DHT22;11064;47.102;15.452;2023-09-30T05:22:35;14.40;99.90
21805;DHT22;11064;47.102;15.452;2023-09-30T05:25:01;14.50;99.90
21805;DHT22;11064;47.102;15.452;2023-09-30T05:27:27;14.60;99.90
21805;DHT22;11064;47.102;15.452;2023-09-30T05:29:53;14.70;99.90
21805;DHT22;11064;47.102;15.452;2023-09-30T05:32:19;14.60;99.90
21805;DHT22;11064;47.102;15.452;2023-09-30T05:34:45;14.60;99.90
21805;DHT22;11064;47.102;15.452;2023-09-30T05:37:11;14.50;99.90
21805;DHT22;11064;47.102;15.452;2023-09-30T05:39:38;14.40;99.90
21805;DHT22;11064;47.102;15.452;2023-09-30T05:42:04;14.40;99.90
21805;DHT22;11064;47.102;15.452;2023-09-30T05:44:31;14.30;99.90
21805;DHT22;11064;47.102;15.452;2023-09-30T05:46:57;14.30;99.90
21805;DHT22;11064;47.102;15.452;2023-09-30T05:49:23;14.40;99.90
21805;DHT22;11064;47.102;15.452;2023-09-30T05:51:49;14.40;99.90
21805;DHT22;11064;47.102;15.452;2023-09-30T05:54:16;14.60;99.90
21805;DHT22;11064;47.102;15.452;2023-09-30T05:56:42;15.10;99.90
21805;DHT22;11064;47.102;15.452;2023-09-30T05:59:10;15.20;99.90
21805;DHT22;11064;47.102;15.452;2023-09-30T06:01:37;15.20;99.90
21805;DHT22;11064;47.102;15.452;2023-09-30T06:04:03;15.10;99.90
21805;DHT22;11064;47.102;15.452;2023-09-30T06:06:31;15.10;99.90
21805;DHT22;11064;47.102;15.452;2023-09-30T06:08:58;15.00;99.90
21805;DHT22;11064;47.102;15.452;2023-09-30T06:11:24;15.00;99.90
21805;DHT22;11064;47.102;15.452;2023-09-30T06:13:54;15.00;99.90
21805;DHT22;11064;47.102;15.452;2023-09-30T06:16:20;15.00;99.90
21805;DHT22;11064;47.102;15.452;2023-09-30T06:18:46;15.10;99.90
21805;DHT22;11064;47.102;15.452;2023-09-30T06:21:14;15.20;99.90
21805;DHT22;11064;47.102;15.452;2023-09-30T06:23:40;15.30;99.90
21805;DHT22;11064;47.102;15.452;2023-09-30T06:26:06;15.30;99.90
21805;DHT22;11064;47.102;15.452;2023-09-30T06:28:32;15.40;99.90
21805;DHT22;11064;47.102;15.452;2023-09-30T06:30:59;15.50;99.90
21805;DHT22;11064;47.102;15.452;2023-09-30T06:33:25;15.60;99.90
21805;DHT22;11064;47.102;15.452;2023-09-30T06:35:54;15.70;99.90
21805;DHT22;11064;47.102;15.452;2023-09-30T06:38:21;15.70;99.90
21805;DHT22;11064;47.102;15.452;2023-09-30T06:40:48;15.70;99.90
21805;DHT22;11064;47.102;15.452;2023-09-30T06:43:14;15.70;99.90
21805;DHT22;11064;47.102;15.452;2023-09-30T06:45:43;15.80;99.90
21805;DHT22;11064;47.102;15.452;2023-09-30T06:48:10;15.90;99.90
21805;DHT22;11064;47.102;15.452;2023-09-30T06:50:43;15.90;99.90
21805;DHT22;11064;47.102;15.452;2023-09-30T06:53:09;16.10;99.90
21805;DHT22;11064;47.102;15.452;2023-09-30T06:55:38;16.20;99.90
21805;DHT22;11064;47.102;15.452;2023-09-30T06:58:05;16.30;99.90
21805;DHT22;11064;47.102;15.452;2023-09-30T07:00:33;16.40;99.90
21805;DHT22;11064;47.102;15.452;2023-09-30T07:03:00;16.50;99.90
21805;DHT22;11064;47.102;15.452;2023-09-30T07:05:27;16.60;99.90
21805;DHT22;11064;47.102;15.452;2023-09-30T07:07:54;16.70;99.90
21805;DHT22;11064;47.102;15.452;2023-09-30T07:10:20;16.90;99.90
21805;DHT22;11064;47.102;15.452;2023-09-30T07:12:46;17.10;99.90
21805;DHT22;11064;47.102;15.452;2023-09-30T07:15:12;17.30;99.90
21805;DHT22;11064;47.102;15.452;2023-09-30T07:17:39;17.40;99.90
21805;DHT22;11064;47.102;15.452;2023-09-30T07:20:06;17.40;99.90
21805;DHT22;11064;47.102;15.452;2023-09-30T07:22:33;17.50;99.90
21805;DHT22;11064;47.102;15.452;2023-09-30T07:24:59;17.50;99.90
21805;DHT22;11064;47.102;15.452;2023-09-30T07:27:25;17.40;99.90
21805;DHT22;11064;47.102;15.452;2023-09-30T07:29:51;17.50;99.90
21805;DHT22;11064;47.102;15.452;2023-09-30T07:32:17;17.60;99.90
21805;DHT22;11064;47.102;15.452;2023-09-30T07:34:42;17.80;99.90
21805;DHT22;11064;47.102;15.452;2023-09-30T07:37:09;18.00;99.90
21805;DHT22;11064;47.102;15.452;2023-09-30T07:39:35;18.10;99.90
21805;DHT22;11064;47.102;15.452;2023-09-30T07:42:02;18.40;99.90
21805;DHT22;11064;47.102;15.452;2023-09-30T07:44:28;18.60;99.90
21805;DHT22;11064;47.102;15.452;2023-09-30T07:46:54;18.80;99.90
21805;DHT22;11064;47.102;15.452;2023-09-30T07:49:19;18.70;99.90
21805;DHT22;11064;47.102;15.452;2023-09-30T07:51:45;18.70;99.90
21805;DHT22;11064;47.102;15.452;2023-09-30T07:54:12;18.90;99.90
21805;DHT22;11064;47.102;15.452;2023-09-30T07:56:38;19.30;99.90
21805;DHT22;11064;47.102;15.452;2023-09-30T07:59:04;19.80;99.90
21805;DHT22;11064;47.102;15.452;2023-09-30T08:01:31;20.10;99.90
21805;DHT22;11064;47.102;15.452;2023-09-30T08:03:57;20.40;99.90
21805;DHT22;11064;47.102;15.452;2023-09-30T08:06:23;20.50;99.90
21805;DHT22;11064;47.102;15.452;2023-09-30T08:08:50;20.50;99.90
21805;DHT22;11064;47.102;15.452;2023-09-30T08:11:17;20.70;99.90
21805;DHT22;11064;47.102;15.452;2023-09-30T08:13:43;20.60;99.90
21805;DHT22;11064;47.102;15.452;2023-09-30T08:16:09;20.60;99.90
21805;DHT22;11064;47.102;15.452;2023-09-30T08:18:35;20.60;99.90
21805;DHT22;11064;47.102;15.452;2023-09-30T08:21:00;20.60;99.90
21805;DHT22;11064;47.102;15.452;2023-09-30T08:23:26;20.30;99.90
21805;DHT22;11064;47.102;15.452;2023-09-30T08:25:52;20.20;99.90
21805;DHT22;11064;47.102;15.452;2023-09-30T08:28:20;20.10;99.90
21805;DHT22;11064;47.102;15.452;2023-09-30T08:30:45;20.10;99.90
21805;DHT22;11064;47.102;15.452;2023-09-30T08:33:11;20.10;99.90
21805;DHT22;11064;47.102;15.452;2023-09-30T08:35:37;20.10;99.90
21805;DHT22;11064;47.102;15.452;2023-09-30T08:38:04;20.40;99.90
21805;DHT22;11064;47.102;15.452;2023-09-30T08:40:30;20.60;99.90
21805;DHT22;11064;47.102;15.452;2023-09-30T08:42:56;20.80;99.90
21805;DHT22;11064;47.102;15.452;2023-09-30T08:45:22;20.90;99.90
21805;DHT22;11064;47.102;15.452;2023-09-30T08:47:48;21.30;99.90
21805;DHT22;11064;47.102;15.452;2023-09-30T08:50:16;21.50;99.90
21805;DHT22;11064;47.102;15.452;2023-09-30T08:52:44;21.70;99.90
21805;DHT22;11064;47.102;15.452;2023-09-30T08:55:13;22.10;99.90
21805;DHT22;11064;47.102;15.452;2023-09-30T08:57:43;22.50;99.90
21805;DHT22;11064;47.102;15.452;2023-09-30T09:00:10;22.50;99.90
21805;DHT22;11064;47.102;15.452;2023-09-30T09:02:40;22.50;99.90
21805;DHT22;11064;47.102;15.452;2023-09-30T09:05:07;22.70;99.90
21805;DHT22;11064;47.102;15.452;2023-09-30T09:07:34;22.90;99.90
21805;DHT22;11064;47.102;15.452;2023-09-30T09:12:32;22.70;99.90
21805;DHT22;11064;47.102;15.452;2023-09-30T09:14:58;23.00;99.90
21805;DHT22;11064;47.102;15.452;2023-09-30T09:17:24;23.20;99.90
21805;DHT22;11064;47.102;15.452;2023-09-30T09:19:59;23.60;99.90
21805;DHT22;11064;47.102;15.452;2023-09-30T09:22:41;24.10;99.90
21805;DHT22;11064;47.102;15.452;2023-09-30T09:25:07;24.00;99.90
21805;DHT22;11064;47.102;15.452;2023-09-30T09:27:35;24.00;99.90
21805;DHT22;11064;47.102;15.452;2023-09-30T09:30:22;24.20;99.90
21805;DHT22;11064;47.102;15.452;2023-09-30T09:33:02;24.20;99.90
21805;DHT22;11064;47.102;15.452;2023-09-30T09:35:32;24.50;99.90
21805;DHT22;11064;47.102;15.452;2023-09-30T09:38:03;24.60;99.90
21805;DHT22;11064;47.102;15.452;2023-09-30T09:40:34;24.70;99.90
21805;DHT22;11064;47.102;15.452;2023-09-30T09:43:01;23.90;99.90
21805;DHT22;11064;47.102;15.452;2023-09-30T09:45:34;23.50;99.90
21805;DHT22;11064;47.102;15.452;2023-09-30T09:48:00;22.80;99.90
21805;DHT22;11064;47.102;15.452;2023-09-30T09:50:27;22.30;99.90
21805;DHT22;11064;47.102;15.452;2023-09-30T09:52:54;22.10;99.90
21805;DHT22;11064;47.102;15.452;2023-09-30T09:55:23;21.70;99.90
21805;DHT22;11064;47.102;15.452;2023-09-30T09:57:49;21.50;99.90
21805;DHT22;11064;47.102;15.452;2023-09-30T10:00:20;21.40;99.90
21805;DHT22;11064;47.102;15.452;2023-09-30T10:02:47;21.40;99.90
21805;DHT22;11064;47.102;15.452;2023-09-30T10:05:14;21.30;99.90
21805;DHT22;11064;47.102;15.452;2023-09-30T10:08:00;21.20;99.90
21805;DHT22;11064;47.102;15.452;2023-09-30T10:10:27;21.40;99.90
21805;DHT22;11064;47.102;15.452;2023-09-30T10:12:54;21.70;99.90
21805;DHT22;11064;47.102;15.452;2023-09-30T10:15:35;21.90;99.90
21805;DHT22;11064;47.102;15.452;2023-09-30T10:18:02;21.80;99.90
21805;DHT22;11064;47.102;15.452;2023-09-30T10:20:41;21.90;99.90
21805;DHT22;11064;47.102;15.452;2023-09-30T10:25:49;21.70;99.90
21805;DHT22;11064;47.102;15.452;2023-09-30T10:28:35;21.90;99.90
21805;DHT22;11064;47.102;15.452;2023-09-30T10:31:17;21.90;99.90
21805;DHT22;11064;47.102;15.452;2023-09-30T10:39:01;22.50;99.90
21805;DHT22;11064;47.102;15.452;2023-09-30T10:46:59;22.40;99.90
21805;DHT22;11064;47.102;15.452;2023-09-30T10:51:56;22.50;99.90
21805;DHT22;11064;47.102;15.452;2023-09-30T10:54:26;22.60;99.90
21805;DHT22;11064;47.102;15.452;2023-09-30T10:56:53;22.60;99.90
21805;DHT22;11064;47.102;15.452;2023-09-30T10:59:23;22.70;99.90
21805;DHT22;11064;47.102;15.452;2023-09-30T11:01:50;22.50;99.90
21805;DHT22;11064;47.102;15.452;2023-09-30T11:04:17;22.40;99.90
21805;DHT22;11064;47.102;15.452;2023-09-30T11:06:44;22.50;99.90
21805;DHT22;11064;47.102;15.452;2023-09-30T11:09:24;22.60;99.90
21805;DHT22;11064;47.102;15.452;2023-09-30T11:11:51;22.40;99.90
21805;DHT22;11064;47.102;15.452;2023-09-30T11:14:25;22.60;99.90
21805;DHT22;11064;47.102;15.452;2023-09-30T11:16:53;22.90;99.90
21805;DHT22;11064;47.102;15.452;2023-09-30T11:19:21;23.10;99.90
21805;DHT22;11064;47.102;15.452;2023-09-30T11:21:52;23.20;99.90
21805;DHT22;11064;47.102;15.452;2023-09-30T11:24:18;23.50;99.90
21805;DHT22;11064;47.102;15.452;2023-09-30T11:26:45;23.70;99.90
21805;DHT22;11064;47.102;15.452;2023-09-30T11:29:14;23.80;99.90
21805;DHT22;11064;47.102;15.452;2023-09-30T11:31:47;23.80;99.90
21805;DHT22;11064;47.102;15.452;2023-09-30T11:34:17;24.30;99.90
21805;DHT22;11064;47.102;15.452;2023-09-30T11:36:52;24.70;99.90
21805;DHT22;11064;47.102;15.452;2023-09-30T11:39:22;24.70;99.90
21805;DHT22;11064;47.102;15.452;2023-09-30T11:41:49;24.60;99.90
21805;DHT22;11064;47.102;15.452;2023-09-30T11:44:15;24.30;99.90
21805;DHT22;11064;47.102;15.452;2023-09-30T11:47:02;24.00;99.90
21805;DHT22;11064;47.102;15.452;2023-09-30T11:49:38;23.80;99.90
21805;DHT22;11064;47.102;15.452;2023-09-30T11:52:12;23.80;99.90
21805;DHT22;11064;47.102;15.452;2023-09-30T11:54:40;23.80;99.90
21805;DHT22;11064;47.102;15.452;2023-09-30T11:57:10;23.90;99.90
21805;DHT22;11064;47.102;15.452;2023-09-30T11:59:37;23.30;99.90
21805;DHT22;11064;47.102;15.452;2023-09-30T12:02:03;23.40;99.90
21805;DHT22;11064;47.102;15.452;2023-09-30T12:04:31;23.60;99.50
21805;DHT22;11064;47.102;15.452;2023-09-30T12:06:57;23.70;99.60
21805;DHT22;11064;47.102;15.452;2023-09-30T12:09:23;23.80;99.90
21805;DHT22;11064;47.102;15.452;2023-09-30T12:11:53;23.70;99.90
21805;DHT22;11064;47.102;15.452;2023-09-30T12:14:19;23.70;99.90
21805;DHT22;11064;47.102;15.452;2023-09-30T12:16:46;23.90;99.90
21805;DHT22;11064;47.102;15.452;2023-09-30T12:19:17;24.00;99.90
21805;DHT22;11064;47.102;15.452;2023-09-30T12:21:44;24.20;99.90
21805;DHT22;11064;47.102;15.452;2023-09-30T12:24:13;24.40;99.90
21805;DHT22;11064;47.102;15.452;2023-09-30T12:26:50;24.80;99.90
21805;DHT22;11064;47.102;15.452;2023-09-30T12:29:18;25.20;99.70
21805;DHT22;11064;47.102;15.452;2023-09-30T12:31:53;25.40;99.20
21805;DHT22;11064;47.102;15.452;2023-09-30T12:34:19;25.30;98.00
21805;DHT22;11064;47.102;15.452;2023-09-30T12:36:45;25.30;98.30
21805;DHT22;11064;47.102;15.452;2023-09-30T12:39:11;25.40;98.70
21805;DHT22;11064;47.102;15.452;2023-09-30T12:41:38;25.50;98.40
21805;DHT22;11064;47.102;15.452;2023-09-30T12:44:05;25.50;97.70
21805;DHT22;11064;47.102;15.452;2023-09-30T12:46:31;25.70;98.50
21805;DHT22;11064;47.102;15.452;2023-09-30T12:49:03;25.70;97.30
21805;DHT22;11064;47.102;15.452;2023-09-30T12:51:30;25.70;97.30
21805;DHT22;11064;47.102;15.452;2023-09-30T12:53:56;25.70;97.50
21805;DHT22;11064;47.102;15.452;2023-09-30T12:56:23;25.50;97.40
21805;DHT22;11064;47.102;15.452;2023-09-30T12:58:49;25.20;97.00
21805;DHT22;11064;47.102;15.452;2023-09-30T13:01:14;25.00;97.20
21805;DHT22;11064;47.102;15.452;2023-09-30T13:03:41;25.00;98.30
21805;DHT22;11064;47.102;15.452;2023-09-30T13:06:07;24.90;97.90
21805;DHT22;11064;47.102;15.452;2023-09-30T13:08:33;25.10;97.50
21805;DHT22;11064;47.102;15.452;2023-09-30T13:11:03;25.40;96.60
21805;DHT22;11064;47.102;15.452;2023-09-30T13:13:30;25.50;95.50
21805;DHT22;11064;47.102;15.452;2023-09-30T13:15:59;25.50;96.40
21805;DHT22;11064;47.102;15.452;2023-09-30T13:18:25;25.50;96.00
21805;DHT22;11064;47.102;15.452;2023-09-30T13:20:51;25.60;96.40
21805;DHT22;11064;47.102;15.452;2023-09-30T13:23:20;25.60;96.50
21805;DHT22;11064;47.102;15.452;2023-09-30T13:25:46;25.10;95.20
21805;DHT22;11064;47.102;15.452;2023-09-30T13:28:13;24.70;96.60
21805;DHT22;11064;47.102;15.452;2023-09-30T13:30:39;24.50;96.40
21805;DHT22;11064;47.102;15.452;2023-09-30T13:33:04;24.30;97.50
21805;DHT22;11064;47.102;15.452;2023-09-30T13:35:31;23.90;98.60
21805;DHT22;11064;47.102;15.452;2023-09-30T13:37:57;23.90;98.80
21805;DHT22;11064;47.102;15.452;2023-09-30T13:40:23;24.00;98.30
21805;DHT22;11064;47.102;15.452;2023-09-30T13:42:49;24.00;98.30
21805;DHT22;11064;47.102;15.452;2023-09-30T13:45:15;24.00;97.80
21805;DHT22;11064;47.102;15.452;2023-09-30T13:47:44;23.90;98.20
21805;DHT22;11064;47.102;15.452;2023-09-30T13:50:10;23.90;98.90
21805;DHT22;11064;47.102;15.452;2023-09-30T13:52:36;23.80;98.20
21805;DHT22;11064;47.102;15.452;2023-09-30T13:55:02;23.60;98.60
21805;DHT22;11064;47.102;15.452;2023-09-30T13:57:30;23.50;99.40
21805;DHT22;11064;47.102;15.452;2023-09-30T13:59:56;23.30;99.90
21805;DHT22;11064;47.102;15.452;2023-09-30T14:02:22;23.30;99.90
21805;DHT22;11064;47.102;15.452;2023-09-30T14:04:48;23.20;99.60
21805;DHT22;11064;47.102;15.452;2023-09-30T14:07:14;23.10;99.90
21805;DHT22;11064;47.102;15.452;2023-09-30T14:09:40;23.00;99.90
21805;DHT22;11064;47.102;15.452;2023-09-30T14:12:06;22.90;99.90
21805;DHT22;11064;47.102;15.452;2023-09-30T14:14:33;22.70;99.90
21805;DHT22;11064;47.102;15.452;2023-09-30T14:17:02;22.50;99.90
21805;DHT22;11064;47.102;15.452;2023-09-30T14:19:37;22.40;99.90
21805;DHT22;11064;47.102;15.452;2023-09-30T14:22:04;22.40;99.90
21805;DHT22;11064;47.102;15.452;2023-09-30T14:24:31;22.30;99.90
21805;DHT22;11064;47.102;15.452;2023-09-30T14:26:58;22.30;99.90
21805;DHT22;11064;47.102;15.452;2023-09-30T14:29:24;22.30;99.90
21805;DHT22;11064;47.102;15.452;2023-09-30T14:31:50;22.30;99.90
21805;DHT22;11064;47.102;15.452;2023-09-30T14:34:17;22.50;99.90
21805;DHT22;11064;47.102;15.452;2023-09-30T14:36:43;22.70;99.90
21805;DHT22;11064;47.102;15.452;2023-09-30T14:39:09;22.90;99.90
21805;DHT22;11064;47.102;15.452;2023-09-30T14:41:35;23.10;99.90
21805;DHT22;11064;47.102;15.452;2023-09-30T14:44:01;23.20;99.90
21805;DHT22;11064;47.102;15.452;2023-09-30T14:46:34;23.20;99.90
21805;DHT22;11064;47.102;15.452;2023-09-30T14:49:00;23.20;99.90
21805;DHT22;11064;47.102;15.452;2023-09-30T14:51:26;23.10;99.90
21805;DHT22;11064;47.102;15.452;2023-09-30T14:53:52;23.00;99.90
21805;DHT22;11064;47.102;15.452;2023-09-30T14:56:19;22.80;99.90
21805;DHT22;11064;47.102;15.452;2023-09-30T14:58:45;22.70;99.90
21805;DHT22;11064;47.102;15.452;2023-09-30T15:01:11;22.60;99.90
21805;DHT22;11064;47.102;15.452;2023-09-30T15:03:38;22.40;99.90
21805;DHT22;11064;47.102;15.452;2023-09-30T15:06:05;22.20;99.90
21805;DHT22;11064;47.102;15.452;2023-09-30T15:08:32;21.90;99.90
21805;DHT22;11064;47.102;15.452;2023-09-30T15:11:01;21.70;99.90
21805;DHT22;11064;47.102;15.452;2023-09-30T15:13:28;21.60;99.90
21805;DHT22;11064;47.102;15.452;2023-09-30T15:15:55;21.40;99.90
21805;DHT22;11064;47.102;15.452;2023-09-30T15:18:21;21.30;99.90
21805;DHT22;11064;47.102;15.452;2023-09-30T15:20:49;21.10;99.90
21805;DHT22;11064;47.102;15.452;2023-09-30T15:23:15;20.90;99.90
21805;DHT22;11064;47.102;15.452;2023-09-30T15:25:44;20.80;99.90
21805;DHT22;11064;47.102;15.452;2023-09-30T15:28:11;20.60;99.90
21805;DHT22;11064;47.102;15.452;2023-09-30T15:30:38;20.40;99.90
21805;DHT22;11064;47.102;15.452;2023-09-30T15:33:04;20.20;99.90
21805;DHT22;11064;47.102;15.452;2023-09-30T15:35:30;20.10;99.90
21805;DHT22;11064;47.102;15.452;2023-09-30T15:37:57;20.00;99.90
21805;DHT22;11064;47.102;15.452;2023-09-30T15:40:24;19.80;99.90
21805;DHT22;11064;47.102;15.452;2023-09-30T15:42:50;19.60;99.90
21805;DHT22;11064;47.102;15.452;2023-09-30T15:45:16;19.50;99.90
21805;DHT22;11064;47.102;15.452;2023-09-30T15:47:44;19.40;99.90
21805;DHT22;11064;47.102;15.452;2023-09-30T15:50:10;19.40;99.90